sensor_id;sensor_type;location;lat;lon;timestamp;pressure;altitude;pressure_sealevel;temperature;humidity
47716;BME280;33476;50.984;3.538;2023-02-16T00:01:22;102505.66;;;9.39;58.92
47716;BME280;33476;50.984;3.538;2023-02-16T00:03:49;102513.28;;;9.52;58.34
47716;BME280;33476;50.984;3.538;2023-02-16T00:06:14;102507.22;;;9.52;58.09
47716;BME280;33476;50.984;3.538;2023-02-16T00:08:48;102507.28;;;9.46;58.46
47716;BME280;33476;50.984;3.538;2023-02-16T00:11:17;102506.47;;;9.42;58.34
47716;BME280;33476;50.984;3.538;2023-02-16T00:14:09;102504.72;;;9.44;58.49
47716;BME280;33476;50.984;3.538;2023-02-16T00:16:35;102510.78;;;9.45;58.40
47716;BME280;33476;50.984;3.538;2023-02-16T00:19:04;102499.50;;;9.44;58.43
47716;BME280;33476;50.984;3.538;2023-02-16T00:21:36;102496.09;;;9.39;59.07
47716;BME280;33476;50.984;3.538;2023-02-16T00:24:02;102492.69;;;9.36;58.98
47716;BME280;33476;50.984;3.538;2023-02-16T00:26:28;102490.06;;;9.37;59.09
47716;BME280;33476;50.984;3.538;2023-02-16T00:28:57;102487.47;;;9.36;58.85
47716;BME280;33476;50.984;3.538;2023-02-16T00:31:24;102484.88;;;9.34;58.84
47716;BME280;33476;50.984;3.538;2023-02-16T00:33:56;102487.50;;;9.33;59.38
47716;BME280;33476;50.984;3.538;2023-02-16T00:36:21;102481.41;;;9.34;58.97
47716;BME280;33476;50.984;3.538;2023-02-16T00:38:46;102477.84;;;9.39;59.01
47716;BME280;33476;50.984;3.538;2023-02-16T00:41:15;102486.53;;;9.40;59.06
47716;BME280;33476;50.984;3.538;2023-02-16T00:44:02;102488.22;;;9.42;59.29
47716;BME280;33476;50.984;3.538;2023-02-16T00:46:27;102476.91;;;9.42;59.00
47716;BME280;33476;50.984;3.538;2023-02-16T00:48:52;102486.50;;;9.41;58.96
47716;BME280;33476;50.984;3.538;2023-02-16T00:51:18;102478.69;;;9.40;58.87
47716;BME280;33476;50.984;3.538;2023-02-16T00:53:43;102475.25;;;9.38;59.52
47716;BME280;33476;50.984;3.538;2023-02-16T00:56:10;102471.81;;;9.36;59.30
47716;BME280;33476;50.984;3.538;2023-02-16T00:58:37;102464.88;;;9.36;58.98
47716;BME280;33476;50.984;3.538;2023-02-16T01:01:09;102466.69;;;9.31;59.24
47716;BME280;33476;50.984;3.538;2023-02-16T01:03:37;102464.94;;;9.32;59.38
47716;BME280;33476;50.984;3.538;2023-02-16T01:06:03;102470.97;;;9.34;59.21
47716;BME280;33476;50.984;3.538;2023-02-16T01:08:47;102463.16;;;9.35;59.37
47716;BME280;33476;50.984;3.538;2023-02-16T01:11:38;102468.38;;;9.34;59.69
47716;BME280;33476;50.984;3.538;2023-02-16T01:14:04;102452.75;;;9.32;59.08
47716;BME280;33476;50.984;3.538;2023-02-16T01:16:40;102451.94;;;9.28;59.78
47716;BME280;33476;50.984;3.538;2023-02-16T01:19:06;102451.81;;;9.35;59.28
47716;BME280;33476;50.984;3.538;2023-02-16T01:21:31;102451.00;;;9.33;59.38
47716;BME280;33476;50.984;3.538;2023-02-16T01:23:57;102444.06;;;9.32;59.17
47716;BME280;33476;50.984;3.538;2023-02-16T01:26:22;102437.06;;;9.35;59.59
47716;BME280;33476;50.984;3.538;2023-02-16T01:28:48;102430.97;;;9.36;59.20
47716;BME280;33476;50.984;3.538;2023-02-16T01:31:14;102450.09;;;9.34;59.26
47716;BME280;33476;50.984;3.538;2023-02-16T01:33:40;102443.19;;;9.33;59.77
47716;BME280;33476;50.984;3.538;2023-02-16T01:36:17;102450.25;;;9.27;59.62
47716;BME280;33476;50.984;3.538;2023-02-16T01:38:46;102457.06;;;9.33;59.53
47716;BME280;33476;50.984;3.538;2023-02-16T01:41:19;102458.78;;;9.34;59.84
47716;BME280;33476;50.984;3.538;2023-02-16T01:43:58;102457.97;;;9.32;59.66
47716;BME280;33476;50.984;3.538;2023-02-16T01:46:41;102450.97;;;9.34;59.48
47716;BME280;33476;50.984;3.538;2023-02-16T01:49:12;102437.97;;;9.33;59.73
47716;BME280;33476;50.984;3.538;2023-02-16T01:55:39;102433.56;;;9.36;60.17
47716;BME280;33476;50.984;3.538;2023-02-16T01:58:11;102433.56;;;9.36;59.79
47716;BME280;33476;50.984;3.538;2023-02-16T02:03:15;102435.34;;;9.33;59.75
47716;BME280;33476;50.984;3.538;2023-02-16T02:06:00;102437.97;;;9.33;60.03
47716;BME280;33476;50.984;3.538;2023-02-16T02:08:34;102432.88;;;9.25;59.96
47716;BME280;33476;50.984;3.538;2023-02-16T02:11:17;102436.41;;;9.22;60.39
47716;BME280;33476;50.984;3.538;2023-02-16T02:13:51;102418.13;;;9.24;60.11
47716;BME280;33476;50.984;3.538;2023-02-16T02:16:21;102422.34;;;9.31;60.47
47716;BME280;33476;50.984;3.538;2023-02-16T02:18:48;102420.53;;;9.35;60.22
47716;BME280;33476;50.984;3.538;2023-02-16T02:27:24;102418.03;;;9.30;60.10
47716;BME280;33476;50.984;3.538;2023-02-16T02:30:30;102414.75;;;9.19;61.07
47716;BME280;33476;50.984;3.538;2023-02-16T02:35:50;102411.09;;;9.29;60.57
47716;BME280;33476;50.984;3.538;2023-02-16T02:38:26;102406.59;;;9.37;60.18
47716;BME280;33476;50.984;3.538;2023-02-16T02:43:55;102407.50;;;9.35;60.87
47716;BME280;33476;50.984;3.538;2023-02-16T02:46:29;102410.06;;;9.38;60.57
47716;BME280;33476;50.984;3.538;2023-02-16T02:48:56;102415.25;;;9.39;60.90
47716;BME280;33476;50.984;3.538;2023-02-16T02:51:21;102402.16;;;9.44;60.71
47716;BME280;33476;50.984;3.538;2023-02-16T02:54:11;102411.72;;;9.43;60.54
47716;BME280;33476;50.984;3.538;2023-02-16T02:57:13;102403.91;;;9.42;60.85
47716;BME280;33476;50.984;3.538;2023-02-16T03:00:11;102403.88;;;9.45;60.69
47716;BME280;33476;50.984;3.538;2023-02-16T03:03:03;102405.47;;;9.52;60.30
47716;BME280;33476;50.984;3.538;2023-02-16T03:05:31;102396.72;;;9.54;60.53
47716;BME280;33476;50.984;3.538;2023-02-16T03:08:02;102392.38;;;9.55;60.30
47716;BME280;33476;50.984;3.538;2023-02-16T03:10:32;102392.38;;;9.55;60.30
47716;BME280;33476;50.984;3.538;2023-02-16T03:13:24;102397.66;;;9.50;60.82
47716;BME280;33476;50.984;3.538;2023-02-16T03:15:51;102388.03;;;9.54;60.48
47716;BME280;33476;50.984;3.538;2023-02-16T03:18:22;102394.06;;;9.57;60.49
47716;BME280;33476;50.984;3.538;2023-02-16T03:21:07;102378.44;;;9.56;59.90
47716;BME280;33476;50.984;3.538;2023-02-16T03:23:52;102388.91;;;9.54;60.41
47716;BME280;33476;50.984;3.538;2023-02-16T03:26:37;102382.84;;;9.54;60.67
47716;BME280;33476;50.984;3.538;2023-02-16T03:29:23;102383.66;;;9.56;60.14
47716;BME280;33476;50.984;3.538;2023-02-16T03:31:52;102378.44;;;9.56;60.38
47716;BME280;33476;50.984;3.538;2023-02-16T03:34:19;102381.06;;;9.54;60.70
47716;BME280;33476;50.984;3.538;2023-02-16T03:36:48;102395.91;;;9.52;60.57
47716;BME280;33476;50.984;3.538;2023-02-16T03:39:15;102390.56;;;9.58;60.49
47716;BME280;33476;50.984;3.538;2023-02-16T03:41:45;102392.38;;;9.55;60.64
47716;BME280;33476;50.984;3.538;2023-02-16T03:44:11;102394.72;;;9.67;60.41
47716;BME280;33476;50.984;3.538;2023-02-16T03:46:37;102388.66;;;9.68;59.75
47716;BME280;33476;50.984;3.538;2023-02-16T03:49:02;102373.84;;;9.67;60.31
47716;BME280;33476;50.984;3.538;2023-02-16T03:51:28;102386.16;;;9.62;60.53
47716;BME280;33476;50.984;3.538;2023-02-16T03:53:53;102375.03;;;9.52;61.11
47716;BME280;33476;50.984;3.538;2023-02-16T03:56:18;102382.00;;;9.50;60.96
47716;BME280;33476;50.984;3.538;2023-02-16T03:58:44;102372.44;;;9.52;60.84
47716;BME280;33476;50.984;3.538;2023-02-16T04:01:09;102378.50;;;9.53;60.81
47716;BME280;33476;50.984;3.538;2023-02-16T04:03:34;102377.53;;;9.57;60.64
47716;BME280;33476;50.984;3.538;2023-02-16T04:06:00;102369.75;;;9.55;61.07
47716;BME280;33476;50.984;3.538;2023-02-16T04:08:25;102371.44;;;9.58;61.19
47716;BME280;33476;50.984;3.538;2023-02-16T04:10:51;102372.22;;;9.63;60.55
47716;BME280;33476;50.984;3.538;2023-02-16T04:13:16;102378.28;;;9.64;60.88
47716;BME280;33476;50.984;3.538;2023-02-16T04:15:42;102378.22;;;9.67;60.62
47716;BME280;33476;50.984;3.538;2023-02-16T04:18:07;102375.69;;;9.64;60.61
47716;BME280;33476;50.984;3.538;2023-02-16T04:20:33;102371.41;;;9.61;61.13
47716;BME280;33476;50.984;3.538;2023-02-16T04:22:59;102374.84;;;9.62;60.70
47716;BME280;33476;50.984;3.538;2023-02-16T04:25:25;102376.56;;;9.63;60.81
47716;BME280;33476;50.984;3.538;2023-02-16T04:27:51;102381.88;;;9.58;61.27
47716;BME280;33476;50.984;3.538;2023-02-16T04:30:23;102388.06;;;9.52;61.06
47716;BME280;33476;50.984;3.538;2023-02-16T04:32:49;102370.53;;;9.59;61.18
47716;BME280;33476;50.984;3.538;2023-02-16T04:35:15;102365.28;;;9.62;61.06
47716;BME280;33476;50.984;3.538;2023-02-16T04:37:41;102369.50;;;9.68;60.87
47716;BME280;33476;50.984;3.538;2023-02-16T04:40:08;102369.59;;;9.63;61.18
47716;BME280;33476;50.984;3.538;2023-02-16T04:42:37;102359.22;;;9.62;61.28
47716;BME280;33476;50.984;3.538;2023-02-16T04:45:03;102365.28;;;9.62;60.86
47716;BME280;33476;50.984;3.538;2023-02-16T04:47:28;102370.53;;;9.59;61.79
47716;BME280;33476;50.984;3.538;2023-02-16T04:49:53;102366.19;;;9.61;61.13
47716;BME280;33476;50.984;3.538;2023-02-16T04:52:19;102355.75;;;9.61;61.19
47716;BME280;33476;50.984;3.538;2023-02-16T04:54:44;102361.00;;;9.58;61.57
47716;BME280;33476;50.984;3.538;2023-02-16T04:57:10;102354.03;;;9.60;61.72
47716;BME280;33476;50.984;3.538;2023-02-16T04:59:36;102368.75;;;9.63;61.53
47716;BME280;33476;50.984;3.538;2023-02-16T05:02:02;102357.50;;;9.61;61.60
47716;BME280;33476;50.984;3.538;2023-02-16T05:04:27;102352.25;;;9.62;61.26
47716;BME280;33476;50.984;3.538;2023-02-16T05:06:53;102340.03;;;9.64;61.27
47716;BME280;33476;50.984;3.538;2023-02-16T05:09:18;102334.75;;;9.66;61.25
47716;BME280;33476;50.984;3.538;2023-02-16T05:11:43;102348.63;;;9.68;61.22
47716;BME280;33476;50.984;3.538;2023-02-16T05:14:30;102371.41;;;9.61;61.66
47716;BME280;33476;50.984;3.538;2023-02-16T05:17:15;102367.09;;;9.57;61.75
47716;BME280;33476;50.984;3.538;2023-02-16T05:19:42;102367.91;;;9.62;61.42
47716;BME280;33476;50.984;3.538;2023-02-16T05:22:08;102363.44;;;9.67;61.51
47716;BME280;33476;50.984;3.538;2023-02-16T05:24:35;102360.78;;;9.70;61.45
47716;BME280;33476;50.984;3.538;2023-02-16T05:27:02;102366.84;;;9.71;61.31
47716;BME280;33476;50.984;3.538;2023-02-16T05:29:27;102363.41;;;9.69;61.18
47716;BME280;33476;50.984;3.538;2023-02-16T05:31:53;102369.50;;;9.68;61.68
47716;BME280;33476;50.984;3.538;2023-02-16T05:34:18;102365.19;;;9.68;61.72
47716;BME280;33476;50.984;3.538;2023-02-16T05:36:43;102374.81;;;9.63;61.89
47716;BME280;33476;50.984;3.538;2023-02-16T05:39:09;102370.53;;;9.61;62.12
47716;BME280;33476;50.984;3.538;2023-02-16T05:41:34;102371.31;;;9.64;62.01
47716;BME280;33476;50.984;3.538;2023-02-16T05:44:01;102374.00;;;9.61;61.85
47716;BME280;33476;50.984;3.538;2023-02-16T05:46:28;102365.28;;;9.62;62.19
47716;BME280;33476;50.984;3.538;2023-02-16T05:48:55;102375.63;;;9.67;61.52
47716;BME280;33476;50.984;3.538;2023-02-16T05:51:22;102381.66;;;9.70;61.42
47716;BME280;33476;50.984;3.538;2023-02-16T05:53:47;102369.50;;;9.68;61.94
47716;BME280;33476;50.984;3.538;2023-02-16T05:56:13;102370.41;;;9.67;62.09
47716;BME280;33476;50.984;3.538;2023-02-16T05:58:39;102372.94;;;9.71;61.66
47716;BME280;33476;50.984;3.538;2023-02-16T06:01:04;102371.09;;;9.75;61.94
47716;BME280;33476;50.984;3.538;2023-02-16T06:03:31;102365.88;;;9.76;61.82
47716;BME280;33476;50.984;3.538;2023-02-16T06:05:58;102380.72;;;9.73;61.71
47716;BME280;33476;50.984;3.538;2023-02-16T06:08:25;102381.63;;;9.72;61.93
47716;BME280;33476;50.984;3.538;2023-02-16T06:10:52;102382.53;;;9.69;61.90
47716;BME280;33476;50.984;3.538;2023-02-16T06:13:18;102386.94;;;9.66;62.30
47716;BME280;33476;50.984;3.538;2023-02-16T06:15:44;102379.13;;;9.66;62.24
47716;BME280;33476;50.984;3.538;2023-02-16T06:18:10;102386.94;;;9.66;62.26
47716;BME280;33476;50.984;3.538;2023-02-16T06:20:37;102386.03;;;9.67;62.36
47716;BME280;33476;50.984;3.538;2023-02-16T06:23:02;102384.28;;;9.67;62.26
47716;BME280;33476;50.984;3.538;2023-02-16T06:25:28;102385.16;;;9.68;61.98
47716;BME280;33476;50.984;3.538;2023-02-16T06:27:53;102382.63;;;9.65;62.30
47716;BME280;33476;50.984;3.538;2023-02-16T06:30:21;102382.66;;;9.63;62.17
47716;BME280;33476;50.984;3.538;2023-02-16T06:32:46;102381.78;;;9.63;62.44
47716;BME280;33476;50.984;3.538;2023-02-16T06:35:12;102382.59;;;9.66;62.33
47716;BME280;33476;50.984;3.538;2023-02-16T06:37:37;102391.31;;;9.65;62.39
47716;BME280;33476;50.984;3.538;2023-02-16T06:40:03;102395.72;;;9.62;62.90
47716;BME280;33476;50.984;3.538;2023-02-16T06:42:28;102384.47;;;9.58;62.86
47716;BME280;33476;50.984;3.538;2023-02-16T06:44:53;102388.81;;;9.59;63.11
47716;BME280;33476;50.984;3.538;2023-02-16T06:47:19;102398.38;;;9.60;63.14
47716;BME280;33476;50.984;3.538;2023-02-16T06:49:44;102394.06;;;9.57;62.86
47716;BME280;33476;50.984;3.538;2023-02-16T06:52:10;102395.84;;;9.55;63.04
47716;BME280;33476;50.984;3.538;2023-02-16T06:54:35;102407.16;;;9.54;63.23
47716;BME280;33476;50.984;3.538;2023-02-16T06:57:00;102400.97;;;9.58;63.24
47716;BME280;33476;50.984;3.538;2023-02-16T06:59:25;102402.69;;;9.61;63.11
47716;BME280;33476;50.984;3.538;2023-02-16T07:01:51;102401.69;;;9.68;63.10
47716;BME280;33476;50.984;3.538;2023-02-16T07:04:16;102410.25;;;9.75;62.68
47716;BME280;33476;50.984;3.538;2023-02-16T07:06:41;102403.31;;;9.74;62.85
47716;BME280;33476;50.984;3.538;2023-02-16T07:09:07;102410.25;;;9.75;62.92
47716;BME280;33476;50.984;3.538;2023-02-16T07:11:32;102416.31;;;9.75;62.62
47716;BME280;33476;50.984;3.538;2023-02-16T07:13:58;102414.53;;;9.79;62.95
47716;BME280;33476;50.984;3.538;2023-02-16T07:16:23;102417.09;;;9.80;62.71
47716;BME280;33476;50.984;3.538;2023-02-16T07:18:48;102421.47;;;9.80;63.06
47716;BME280;33476;50.984;3.538;2023-02-16T07:21:14;102418.84;;;9.80;63.11
47716;BME280;33476;50.984;3.538;2023-02-16T07:23:40;102433.69;;;9.78;63.25
47716;BME280;33476;50.984;3.538;2023-02-16T07:26:05;102426.78;;;9.74;63.38
47716;BME280;33476;50.984;3.538;2023-02-16T07:28:31;102427.63;;;9.76;63.61
47716;BME280;33476;50.984;3.538;2023-02-16T07:30:56;102429.38;;;9.77;63.49
47716;BME280;33476;50.984;3.538;2023-02-16T07:33:21;102438.06;;;9.77;63.89
47716;BME280;33476;50.984;3.538;2023-02-16T07:35:47;102429.41;;;9.74;64.43
47716;BME280;33476;50.984;3.538;2023-02-16T07:38:14;102437.25;;;9.72;64.48
47716;BME280;33476;50.984;3.538;2023-02-16T07:40:40;102437.19;;;9.75;64.77
47716;BME280;33476;50.984;3.538;2023-02-16T07:43:06;102436.34;;;9.76;64.53
47716;BME280;33476;50.984;3.538;2023-02-16T07:45:32;102435.44;;;9.76;64.62
47716;BME280;33476;50.984;3.538;2023-02-16T07:47:58;102438.88;;;9.79;64.81
47716;BME280;33476;50.984;3.538;2023-02-16T07:50:24;102425.88;;;9.78;64.63
47716;BME280;33476;50.984;3.538;2023-02-16T07:52:50;102445.91;;;9.74;65.19
47716;BME280;33476;50.984;3.538;2023-02-16T07:55:15;102439.84;;;9.74;65.27
47716;BME280;33476;50.984;3.538;2023-02-16T07:57:40;102445.03;;;9.75;65.28
47716;BME280;33476;50.984;3.538;2023-02-16T08:00:07;102438.06;;;9.76;65.23
47716;BME280;33476;50.984;3.538;2023-02-16T08:02:33;102440.63;;;9.79;65.26
47716;BME280;33476;50.984;3.538;2023-02-16T08:04:58;102439.81;;;9.77;65.42
47716;BME280;33476;50.984;3.538;2023-02-16T08:07:25;102439.88;;;9.72;65.94
47716;BME280;33476;50.984;3.538;2023-02-16T08:09:50;102453.88;;;9.68;66.41
47716;BME280;33476;50.984;3.538;2023-02-16T08:12:16;102443.41;;;9.70;66.26
47716;BME280;33476;50.984;3.538;2023-02-16T08:14:42;102441.59;;;9.73;66.67
47716;BME280;33476;50.984;3.538;2023-02-16T08:17:08;102434.66;;;9.72;66.44
47716;BME280;33476;50.984;3.538;2023-02-16T08:19:33;102426.78;;;9.74;66.53
47716;BME280;33476;50.984;3.538;2023-02-16T08:21:59;102423.28;;;9.75;66.77
47716;BME280;33476;50.984;3.538;2023-02-16T08:24:26;102428.50;;;9.76;66.57
47716;BME280;33476;50.984;3.538;2023-02-16T08:26:53;102424.19;;;9.74;66.92
47716;BME280;33476;50.984;3.538;2023-02-16T08:29:21;102431.19;;;9.72;67.36
47716;BME280;33476;50.984;3.538;2023-02-16T08:31:46;102425.03;;;9.74;67.27
47716;BME280;33476;50.984;3.538;2023-02-16T08:34:13;102425.91;;;9.76;67.17
47716;BME280;33476;50.984;3.538;2023-02-16T08:36:41;102418.84;;;9.80;67.06
47716;BME280;33476;50.984;3.538;2023-02-16T08:39:13;102415.28;;;9.85;66.99
47716;BME280;33476;50.984;3.538;2023-02-16T08:41:40;102421.22;;;9.92;66.98
47716;BME280;33476;50.984;3.538;2023-02-16T08:44:07;102428.97;;;9.97;66.64
47716;BME280;33476;50.984;3.538;2023-02-16T08:46:34;102420.25;;;9.98;66.95
47716;BME280;33476;50.984;3.538;2023-02-16T08:49:00;102417.56;;;10.02;67.09
47716;BME280;33476;50.984;3.538;2023-02-16T08:51:31;102424.38;;;10.08;67.07
47716;BME280;33476;50.984;3.538;2023-02-16T08:53:59;102428.56;;;10.18;66.80
47716;BME280;33476;50.984;3.538;2023-02-16T08:56:25;102433.69;;;10.21;67.01
47716;BME280;33476;50.984;3.538;2023-02-16T08:58:51;102423.16;;;10.26;67.01
47716;BME280;33476;50.984;3.538;2023-02-16T09:01:17;102418.72;;;10.31;67.27
47716;BME280;33476;50.984;3.538;2023-02-16T09:03:44;102417.78;;;10.35;67.10
47716;BME280;33476;50.984;3.538;2023-02-16T09:06:12;102435.00;;;10.42;67.32
47716;BME280;33476;50.984;3.538;2023-02-16T09:08:38;102423.50;;;10.51;67.05
47716;BME280;33476;50.984;3.538;2023-02-16T09:11:06;102416.50;;;10.53;67.21
47716;BME280;33476;50.984;3.538;2023-02-16T09:13:36;102424.28;;;10.56;67.20
47716;BME280;33476;50.984;3.538;2023-02-16T09:16:07;102429.41;;;10.59;67.26
47716;BME280;33476;50.984;3.538;2023-02-16T09:18:34;102430.31;;;10.59;67.32
47716;BME280;33476;50.984;3.538;2023-02-16T09:21:05;102439.00;;;10.60;67.39
47716;BME280;33476;50.984;3.538;2023-02-16T09:23:33;102440.44;;;10.73;67.18
47716;BME280;33476;50.984;3.538;2023-02-16T09:25:59;102442.00;;;10.80;66.95
47716;BME280;33476;50.984;3.538;2023-02-16T09:28:27;102435.97;;;10.78;67.23
47716;BME280;33476;50.984;3.538;2023-02-16T09:30:53;102437.03;;;10.69;68.08
47716;BME280;33476;50.984;3.538;2023-02-16T09:33:18;102431.91;;;10.65;67.85
47716;BME280;33476;50.984;3.538;2023-02-16T09:35:44;102425.81;;;10.64;68.19
47716;BME280;33476;50.984;3.538;2023-02-16T09:38:09;102431.00;;;10.67;68.17
47716;BME280;33476;50.984;3.538;2023-02-16T09:40:36;102430.91;;;10.71;68.38
47716;BME280;33476;50.984;3.538;2023-02-16T09:43:12;102423.84;;;10.74;68.19
47716;BME280;33476;50.984;3.538;2023-02-16T09:45:42;102422.81;;;10.81;68.27
47716;BME280;33476;50.984;3.538;2023-02-16T09:48:35;102430.63;;;10.83;68.38
47716;BME280;33476;50.984;3.538;2023-02-16T09:51:03;102420.00;;;10.90;67.99
47716;BME280;33476;50.984;3.538;2023-02-16T09:53:36;102426.97;;;10.90;67.96
47716;BME280;33476;50.984;3.538;2023-02-16T09:56:12;102432.91;;;10.96;68.02
47716;BME280;33476;50.984;3.538;2023-02-16T09:58:49;102429.44;;;10.96;68.26
47716;BME280;33476;50.984;3.538;2023-02-16T10:07:13;102431.31;;;11.27;67.24
47716;BME280;33476;50.984;3.538;2023-02-16T10:09:48;102420.88;;;11.25;67.72
47716;BME280;33476;50.984;3.538;2023-02-16T10:12:21;102413.97;;;11.22;67.75
47716;BME280;33476;50.984;3.538;2023-02-16T10:14:51;102420.16;;;11.20;68.07
47716;BME280;33476;50.984;3.538;2023-02-16T10:19:58;102423.72;;;11.17;68.35
47716;BME280;33476;50.984;3.538;2023-02-16T10:22:32;102418.19;;;11.28;68.01
47716;BME280;33476;50.984;3.538;2023-02-16T10:27:38;102419.16;;;11.25;67.63
47716;BME280;33476;50.984;3.538;2023-02-16T10:30:18;102432.25;;;11.24;67.99
47716;BME280;33476;50.984;3.538;2023-02-16T10:38:21;102429.34;;;11.69;67.20
47716;BME280;33476;50.984;3.538;2023-02-16T10:44:10;102446.78;;;11.70;66.81
47716;BME280;33476;50.984;3.538;2023-02-16T10:46:42;102439.03;;;11.65;67.15
47716;BME280;33476;50.984;3.538;2023-02-16T10:49:14;102434.53;;;11.70;67.08
47716;BME280;33476;50.984;3.538;2023-02-16T10:51:42;102446.50;;;11.80;66.88
47716;BME280;33476;50.984;3.538;2023-02-16T10:54:15;102429.00;;;11.82;66.96
47716;BME280;33476;50.984;3.538;2023-02-16T11:01:58;102405.78;;;12.01;66.40
47716;BME280;33476;50.984;3.538;2023-02-16T11:04:41;102403.59;;;12.16;66.31
47716;BME280;33476;50.984;3.538;2023-02-16T11:09:38;102393.75;;;12.25;65.75
47716;BME280;33476;50.984;3.538;2023-02-16T11:17:58;102395.44;;;12.26;66.11
47716;BME280;33476;50.984;3.538;2023-02-16T11:22:51;102409.13;;;12.36;66.40
47716;BME280;33476;50.984;3.538;2023-02-16T11:25:23;102411.69;;;12.37;66.23
47716;BME280;33476;50.984;3.538;2023-02-16T11:27:52;102412.22;;;12.49;66.13
47716;BME280;33476;50.984;3.538;2023-02-16T11:30:25;102401.31;;;12.62;65.77
47716;BME280;33476;50.984;3.538;2023-02-16T11:32:53;102418.28;;;12.79;65.21
47716;BME280;33476;50.984;3.538;2023-02-16T11:35:20;102414.41;;;12.90;65.24
47716;BME280;33476;50.984;3.538;2023-02-16T11:37:45;102406.91;;;13.06;65.07
47716;BME280;33476;50.984;3.538;2023-02-16T11:40:18;102406.50;;;13.18;64.45
47716;BME280;33476;50.984;3.538;2023-02-16T11:42:47;102411.53;;;13.26;64.39
47716;BME280;33476;50.984;3.538;2023-02-16T11:45:30;102408.19;;;13.21;64.68
47716;BME280;33476;50.984;3.538;2023-02-16T11:48:07;102413.44;;;13.21;64.92
47716;BME280;33476;50.984;3.538;2023-02-16T11:50:38;102398.63;;;13.18;64.77
47716;BME280;33476;50.984;3.538;2023-02-16T11:55:46;102377.63;;;13.45;64.33
47716;BME280;33476;50.984;3.538;2023-02-16T11:58:26;102367.28;;;13.65;63.65
47716;BME280;33476;50.984;3.538;2023-02-16T12:01:06;102359.16;;;13.71;63.48
47716;BME280;33476;50.984;3.538;2023-02-16T12:10:27;102350.66;;;13.65;63.37
47716;BME280;33476;50.984;3.538;2023-02-16T12:15:12;102340.69;;;13.74;63.43
47716;BME280;33476;50.984;3.538;2023-02-16T12:28:52;102320.63;;;13.72;63.88
47716;BME280;33476;50.984;3.538;2023-02-16T12:31:27;102320.47;;;13.76;63.31
47716;BME280;33476;50.984;3.538;2023-02-16T12:39:47;102319.78;;;13.71;63.91
47716;BME280;33476;50.984;3.538;2023-02-16T12:45:16;102323.38;;;13.92;63.56
47716;BME280;33476;50.984;3.538;2023-02-16T12:47:50;102319.63;;;13.99;63.09
47716;BME280;33476;50.984;3.538;2023-02-16T12:50:25;102314.38;;;13.99;63.07
47716;BME280;33476;50.984;3.538;2023-02-16T12:52:59;102317.34;;;13.90;63.50
47716;BME280;33476;50.984;3.538;2023-02-16T12:55:30;102312.75;;;13.95;63.16
47716;BME280;33476;50.984;3.538;2023-02-16T12:58:24;102311.28;;;13.88;63.58
47716;BME280;33476;50.984;3.538;2023-02-16T13:00:58;102294.72;;;13.86;63.38
47716;BME280;33476;50.984;3.538;2023-02-16T13:11:58;102284.91;;;13.91;63.10
47716;BME280;33476;50.984;3.538;2023-02-16T13:14:31;102283.06;;;13.93;63.41
47716;BME280;33476;50.984;3.538;2023-02-16T13:17:04;102277.06;;;13.90;63.66
47716;BME280;33476;50.984;3.538;2023-02-16T13:19:34;102274.50;;;13.88;63.72
47716;BME280;33476;50.984;3.538;2023-02-16T13:30:47;102264.13;;;13.85;63.19
47716;BME280;33476;50.984;3.538;2023-02-16T13:39:05;102254.31;;;13.90;62.33
47716;BME280;33476;50.984;3.538;2023-02-16T13:41:55;102249.06;;;13.90;62.45
47716;BME280;33476;50.984;3.538;2023-02-16T13:44:39;102251.69;;;13.90;62.32
47716;BME280;33476;50.984;3.538;2023-02-16T13:47:12;102242.13;;;13.88;62.42
47716;BME280;33476;50.984;3.538;2023-02-16T13:49:41;102254.31;;;13.90;62.08
47716;BME280;33476;50.984;3.538;2023-02-16T13:52:30;102228.44;;;13.80;62.40
47716;BME280;33476;50.984;3.538;2023-02-16T13:54:57;102233.63;;;13.81;62.25
47716;BME280;33476;50.984;3.538;2023-02-16T14:00:39;102224.41;;;13.71;62.91
47716;BME280;33476;50.984;3.538;2023-02-16T14:05:49;102233.03;;;13.74;62.60
47716;BME280;33476;50.984;3.538;2023-02-16T14:13:22;102232.28;;;13.71;62.37
47716;BME280;33476;50.984;3.538;2023-02-16T14:15:52;102222.91;;;13.65;63.11
47716;BME280;33476;50.984;3.538;2023-02-16T14:21:24;102221.34;;;13.60;63.15
47716;BME280;33476;50.984;3.538;2023-02-16T14:23:56;102215.19;;;13.61;62.91
47716;BME280;33476;50.984;3.538;2023-02-16T14:26:22;102224.69;;;13.63;62.97
47716;BME280;33476;50.984;3.538;2023-02-16T14:29:12;102218.78;;;13.58;63.23
47716;BME280;33476;50.984;3.538;2023-02-16T14:31:43;102211.84;;;13.57;63.34
47716;BME280;33476;50.984;3.538;2023-02-16T14:34:18;102212.78;;;13.55;63.46
47716;BME280;33476;50.984;3.538;2023-02-16T14:37:25;102209.13;;;13.59;63.38
47716;BME280;33476;50.984;3.538;2023-02-16T14:39:53;102207.13;;;13.65;62.84
47716;BME280;33476;50.984;3.538;2023-02-16T14:42:55;102201.25;;;13.59;63.12
47716;BME280;33476;50.984;3.538;2023-02-16T14:45:43;102206.38;;;13.62;63.33
47716;BME280;33476;50.984;3.538;2023-02-16T14:51:00;102210.72;;;13.63;63.09
47716;BME280;33476;50.984;3.538;2023-02-16T14:53:57;102213.34;;;13.63;63.20
47716;BME280;33476;50.984;3.538;2023-02-16T14:56:44;102204.38;;;13.68;62.87
47716;BME280;33476;50.984;3.538;2023-02-16T15:01:56;102213.19;;;13.67;62.93
47716;BME280;33476;50.984;3.538;2023-02-16T15:04:26;102207.25;;;13.62;63.28
47716;BME280;33476;50.984;3.538;2023-02-16T15:06:53;102206.38;;;13.62;63.34
47716;BME280;33476;50.984;3.538;2023-02-16T15:09:31;102200.28;;;13.61;63.66
47716;BME280;33476;50.984;3.538;2023-02-16T15:12:00;102198.44;;;13.63;63.39
47716;BME280;33476;50.984;3.538;2023-02-16T15:14:53;102212.31;;;13.67;63.54
47716;BME280;33476;50.984;3.538;2023-02-16T15:17:33;102216.03;;;13.61;63.80
47716;BME280;33476;50.984;3.538;2023-02-16T15:22:28;102197.66;;;13.61;64.34
47716;BME280;33476;50.984;3.538;2023-02-16T15:25:03;102196.94;;;13.58;64.56